Time;durP1;ratioP1;P1;durP2;ratioP2;P2;SDS_P1;SDS_P2;PMS_P1;PMS_P2;Temp;Humidity;BMP_temperature;BMP_pressure;BME280_temperature;BME280_humidity;BME280_pressure;Samples;Min_cycle;Max_cycle;Signal;HPM_P1;HPM_P2
2021/04/19 00:01:34;;;;;;;18.60;9.07;;;3.50;99.90;;;;;;5095547;28;20035;-48
2021/04/19 00:03:59;;;;;;;17.98;8.77;;;3.50;99.90;;;;;;5095429;28;20371;-49
2021/04/19 00:06:25;;;;;;;21.42;9.70;;;3.50;99.90;;;;;;5095221;28;20047;-47
2021/04/19 00:08:51;;;;;;;19.77;10.00;;;3.50;99.90;;;;;;5094522;28;20100;-46
2021/04/19 00:11:16;;;;;;;17.30;9.63;;;3.50;99.90;;;;;;5095150;28;20062;-48
2021/04/19 00:13:42;;;;;;;22.13;9.88;;;3.50;99.90;;;;;;5095154;28;20082;-50
2021/04/19 00:16:09;;;;;;;17.05;9.13;;;3.50;99.90;;;;;;5094025;28;20032;-49
2021/04/19 00:18:34;;;;;;;22.30;9.82;;;3.50;99.90;;;;;;5095351;28;20107;-50
2021/04/19 00:21:00;;;;;;;20.02;9.38;;;3.50;99.90;;;;;;5094969;28;20460;-47
2021/04/19 00:23:25;;;;;;;19.73;9.25;;;3.50;99.90;;;;;;5094035;28;20052;-45
2021/04/19 00:25:51;;;;;;;24.30;9.73;;;3.50;99.90;;;;;;5095011;28;20030;-47
2021/04/19 00:28:17;;;;;;;21.13;10.07;;;3.40;99.90;;;;;;5095045;28;20031;-47
2021/04/19 00:30:42;;;;;;;14.75;7.78;;;3.40;99.90;;;;;;5095016;28;20063;-46
2021/04/19 00:33:08;;;;;;;20.13;10.90;;;3.40;99.90;;;;;;5094934;28;20111;-47
2021/04/19 00:35:33;;;;;;;20.15;9.45;;;3.40;99.90;;;;;;5094860;28;20024;-46
2021/04/19 00:37:59;;;;;;;21.13;10.65;;;3.40;99.90;;;;;;5093803;28;20527;-47
2021/04/19 00:40:24;;;;;;;20.52;10.68;;;3.40;99.90;;;;;;5082600;28;20024;-46
2021/04/19 00:42:53;;;;;;;20.67;10.23;;;3.40;99.90;;;;;;5074482;28;20028;-51
2021/04/19 00:45:19;;;;;;;15.73;8.15;;;3.30;99.90;;;;;;5074545;28;20020;-47
2021/04/19 00:47:45;;;;;;;21.05;11.07;;;3.30;99.90;;;;;;5074335;28;20036;-46
2021/04/19 00:50:14;;;;;;;19.85;9.07;;;3.20;99.90;;;;;;5074355;28;20032;-49
2021/04/19 00:52:40;;;;;;;17.27;8.60;;;3.20;99.90;;;;;;5092919;28;20035;-50
2021/04/19 00:55:10;;;;;;;19.60;9.63;;;3.20;99.90;;;;;;5094464;28;20426;-47
2021/04/19 00:57:35;;;;;;;17.73;9.82;;;3.20;99.90;;;;;;5094417;28;20399;-46
2021/04/19 01:00:01;;;;;;;15.13;8.55;;;3.20;99.90;;;;;;5094314;28;20033;-47
2021/04/19 01:02:26;;;;;;;15.68;7.82;;;3.20;99.90;;;;;;5094407;28;20016;-48
2021/04/19 01:04:52;;;;;;;19.23;8.93;;;3.10;99.90;;;;;;5094323;28;20024;-46
2021/04/19 01:07:18;;;;;;;20.77;10.05;;;3.10;99.90;;;;;;5093184;28;20028;-47
2021/04/19 01:09:44;;;;;;;19.50;9.18;;;3.10;99.90;;;;;;5094123;28;20027;-48
2021/04/19 01:12:10;;;;;;;15.70;9.38;;;3.10;99.90;;;;;;5094113;28;20039;-46
2021/04/19 01:14:35;;;;;;;17.65;9.65;;;3.10;99.90;;;;;;5094246;28;20036;-45
2021/04/19 01:17:01;;;;;;;20.45;8.73;;;3.00;99.90;;;;;;5093967;28;20024;-48
2021/04/19 01:19:26;;;;;;;20.00;9.70;;;3.00;99.90;;;;;;5094068;28;20035;-47
2021/04/19 01:21:52;;;;;;;14.43;7.45;;;3.00;99.90;;;;;;5093492;28;20036;-46
2021/04/19 01:24:18;;;;;;;16.58;8.60;;;3.00;99.90;;;;;;5093206;28;20445;-45
2021/04/19 01:26:43;;;;;;;21.35;9.68;;;2.90;99.90;;;;;;5093820;28;20028;-50
2021/04/19 01:29:08;;;;;;;17.60;8.40;;;2.90;99.90;;;;;;5094060;28;20431;-46
2021/04/19 01:31:34;;;;;;;17.25;8.05;;;2.90;99.90;;;;;;5093791;28;20037;-51
2021/04/19 01:34:00;;;;;;;15.38;8.07;;;2.90;99.90;;;;;;5093777;28;20120;-50
2021/04/19 01:36:25;;;;;;;14.50;8.27;;;2.90;99.90;;;;;;5093741;28;20025;-46
2021/04/19 01:38:51;;;;;;;16.30;8.70;;;2.90;99.90;;;;;;5092560;28;20028;-46
2021/04/19 01:41:17;;;;;;;14.82;7.63;;;2.90;99.90;;;;;;5073997;28;20024;-47
2021/04/19 01:43:43;;;;;;;16.88;8.75;;;2.90;99.90;;;;;;5073161;28;20043;-46
2021/04/19 01:46:08;;;;;;;18.30;9.25;;;2.90;99.90;;;;;;5073326;28;20031;-47
2021/04/19 01:48:34;;;;;;;18.70;9.68;;;2.80;99.90;;;;;;5073262;28;20024;-46
2021/04/19 01:50:59;;;;;;;15.75;8.10;;;2.80;99.90;;;;;;5078839;28;20375;-47
2021/04/19 01:53:25;;;;;;;14.07;8.02;;;2.80;99.90;;;;;;5092228;28;20024;-46
2021/04/19 01:55:51;;;;;;;15.45;8.20;;;2.80;99.90;;;;;;5093377;28;20520;-46
2021/04/19 01:58:19;;;;;;;11.63;6.75;;;2.80;99.90;;;;;;5093383;28;20088;-46
2021/04/19 02:00:51;;;;;;;14.93;8.00;;;2.80;99.90;;;;;;5093218;28;20031;-46
2021/04/19 02:03:35;;;;;;;17.17;7.88;;;2.80;99.90;;;;;;5092826;28;20043;-46
2021/04/19 02:06:28;;;;;;;15.32;8.68;;;2.80;99.90;;;;;;5092947;28;20024;-46
2021/04/19 02:09:06;;;;;;;14.05;7.45;;;2.80;99.90;;;;;;5091900;28;20048;-48
2021/04/19 02:12:06;;;;;;;16.38;8.57;;;2.80;99.90;;;;;;5093219;28;20022;-49
2021/04/19 02:14:59;;;;;;;13.85;7.47;;;2.80;99.90;;;;;;5093304;28;20425;-48
2021/04/19 02:17:46;;;;;;;14.88;7.97;;;2.80;99.90;;;;;;5093084;28;20016;-48
2021/04/19 02:20:55;;;;;;;13.10;8.02;;;2.80;99.90;;;;;;5092923;28;20032;-47
2021/04/19 02:23:30;;;;;;;13.93;8.00;;;2.70;99.90;;;;;;5091780;28;20131;-48
2021/04/19 02:25:59;;;;;;;13.73;7.07;;;2.70;99.90;;;;;;5092867;28;20020;-49
2021/04/19 02:28:29;;;;;;;19.38;8.35;;;2.60;99.90;;;;;;5092892;28;20032;-48
2021/04/19 02:31:00;;;;;;;14.65;8.15;;;2.70;99.90;;;;;;5092641;28;20067;-49
2021/04/19 02:33:33;;;;;;;16.50;9.15;;;2.70;99.90;;;;;;5092864;28;20024;-47
2021/04/19 02:36:00;;;;;;;14.80;7.72;;;2.70;99.90;;;;;;5092564;28;20039;-46
2021/04/19 02:38:30;;;;;;;17.77;8.80;;;2.90;99.90;;;;;;5091644;28;20016;-48
2021/04/19 02:41:00;;;;;;;16.40;8.18;;;3.00;99.90;;;;;;5076138;28;20021;-48
2021/04/19 02:43:30;;;;;;;17.08;7.93;;;3.10;99.90;;;;;;5072330;28;20064;-49
2021/04/19 02:45:56;;;;;;;16.20;9.25;;;3.20;99.90;;;;;;5072344;28;20028;-49
2021/04/19 02:48:26;;;;;;;15.32;8.02;;;3.20;99.90;;;;;;5072421;28;20027;-47
2021/04/19 02:50:53;;;;;;;12.90;7.22;;;3.30;99.90;;;;;;5077045;28;20371;-48
2021/04/19 02:53:21;;;;;;;13.88;8.07;;;3.30;99.90;;;;;;5091552;28;20045;-48
2021/04/19 02:55:47;;;;;;;14.40;7.57;;;3.40;99.90;;;;;;5092625;28;20051;-45
2021/04/19 02:58:16;;;;;;;19.73;7.80;;;3.40;99.90;;;;;;5091099;28;20024;-48
2021/04/19 03:00:44;;;;;;;11.10;7.00;;;3.40;99.90;;;;;;5092532;28;20065;-50
2021/04/19 03:03:17;;;;;;;13.00;7.30;;;3.30;99.90;;;;;;5092400;28;20027;-46
2021/04/19 03:05:43;;;;;;;14.13;6.43;;;3.20;99.90;;;;;;5092549;28;20475;-49
2021/04/19 03:08:14;;;;;;;13.98;7.55;;;3.20;99.90;;;;;;5089938;28;20302;-47
2021/04/19 03:10:47;;;;;;;9.43;5.07;;;3.10;99.90;;;;;;5092402;28;20067;-49
2021/04/19 03:13:14;;;;;;;18.00;8.02;;;3.10;99.90;;;;;;5092220;28;20116;-46
2021/04/19 03:15:41;;;;;;;12.70;6.82;;;3.20;99.90;;;;;;5095847;28;20024;-48
2021/04/19 03:18:09;;;;;;;14.65;8.43;;;3.20;99.90;;;;;;5096374;28;20055;-47
2021/04/19 03:21:07;;;;;;;18.02;8.63;;;3.10;99.90;;;;;;5096322;28;20114;-49
2021/04/19 03:23:41;;;;;;;13.43;7.20;;;3.20;99.90;;;;;;5095172;28;20075;-47
2021/04/19 03:26:08;;;;;;;18.00;8.82;;;3.20;99.90;;;;;;5096234;28;20021;-48
2021/04/19 03:28:35;;;;;;;14.65;8.10;;;3.20;99.90;;;;;;5096186;28;20024;-50
2021/04/19 03:31:05;;;;;;;17.10;8.00;;;3.20;99.90;;;;;;5096205;28;20024;-46
2021/04/19 03:33:33;;;;;;;13.88;7.70;;;3.30;99.90;;;;;;5094747;28;20020;-47
2021/04/19 03:36:01;;;;;;;16.48;8.77;;;3.30;99.90;;;;;;5096076;28;20024;-47
2021/04/19 03:38:27;;;;;;;15.70;8.25;;;3.20;99.90;;;;;;5095128;28;20020;-47
2021/04/19 03:40:53;;;;;;;16.05;7.90;;;3.20;99.90;;;;;;5079662;28;20032;-47
2021/04/19 03:43:23;;;;;;;13.23;7.60;;;3.30;99.90;;;;;;5075596;28;20056;-48
2021/04/19 03:45:52;;;;;;;13.35;7.95;;;3.30;99.90;;;;;;5075746;28;20017;-46
2021/04/19 03:48:22;;;;;;;15.40;8.35;;;3.40;99.90;;;;;;5075343;28;20020;-49
2021/04/19 03:51:01;;;;;;;15.00;8.02;;;3.30;99.90;;;;;;5079600;28;20023;-47
2021/04/19 03:53:27;;;;;;;15.45;7.75;;;3.40;99.90;;;;;;5094730;28;20102;-46
2021/04/19 03:55:55;;;;;;;13.48;7.43;;;3.40;99.90;;;;;;5095682;28;20028;-48
2021/04/19 03:58:24;;;;;;;14.27;7.38;;;3.40;99.90;;;;;;5095527;28;20107;-46
2021/04/19 04:00:52;;;;;;;13.52;7.68;;;3.50;99.90;;;;;;5095606;28;20077;-47
2021/04/19 04:03:19;;;;;;;12.75;7.75;;;3.50;99.90;;;;;;5095408;28;20028;-46
2021/04/19 04:05:46;;;;;;;13.65;7.68;;;3.50;99.90;;;;;;5094319;28;20020;-47
2021/04/19 04:08:13;;;;;;;13.43;7.97;;;3.40;99.90;;;;;;5094295;28;20081;-45
2021/04/19 04:10:40;;;;;;;14.27;7.63;;;3.40;99.90;;;;;;5081298;28;20021;-50
2021/04/19 04:13:05;;;;;;;14.65;8.13;;;3.30;99.90;;;;;;5074618;28;20024;-48
2021/04/19 04:15:31;;;;;;;14.73;8.18;;;3.30;99.90;;;;;;5074977;28;20024;-47
2021/04/19 04:17:56;;;;;;;17.63;9.30;;;3.30;99.90;;;;;;5074924;28;20488;-49
2021/04/19 04:20:22;;;;;;;20.50;9.68;;;3.30;99.90;;;;;;5074723;28;20601;-47
2021/04/19 04:22:48;;;;;;;18.58;10.57;;;3.30;99.90;;;;;;5073756;28;20025;-46
2021/04/19 04:25:15;;;;;;;20.67;10.10;;;3.30;99.90;;;;;;5074127;28;20063;-48
2021/04/19 04:27:41;;;;;;;18.10;9.20;;;3.30;99.90;;;;;;5074779;28;20021;-50
2021/04/19 04:30:07;;;;;;;19.35;8.82;;;3.30;99.90;;;;;;5074557;28;20051;-46
2021/04/19 04:32:33;;;;;;;18.67;9.00;;;3.40;99.90;;;;;;5074714;28;20069;-48
2021/04/19 04:34:59;;;;;;;17.83;8.30;;;3.40;99.90;;;;;;5074480;28;20040;-48
2021/04/19 04:37:24;;;;;;;14.45;8.18;;;3.40;99.90;;;;;;5073601;28;20054;-48
2021/04/19 04:39:49;;;;;;;20.95;9.32;;;3.50;99.90;;;;;;5074479;28;20032;-48
2021/04/19 04:42:18;;;;;;;13.27;7.53;;;3.50;99.90;;;;;;5074080;28;20107;-48
2021/04/19 04:44:47;;;;;;;14.82;7.40;;;3.50;99.90;;;;;;5073193;28;20024;-51
2021/04/19 04:47:13;;;;;;;16.00;7.95;;;3.50;99.90;;;;;;5074482;28;20055;-47
2021/04/19 04:49:56;;;;;;;15.00;7.78;;;3.50;99.90;;;;;;5074447;28;20048;-47
2021/04/19 04:52:23;;;;;;;16.60;8.02;;;3.50;99.90;;;;;;5090544;28;20055;-49
2021/04/19 04:54:50;;;;;;;13.38;7.65;;;3.60;99.90;;;;;;5076410;28;20031;-48
2021/04/19 04:57:20;;;;;;;19.73;10.00;;;3.60;99.90;;;;;;5073381;28;20024;-46
2021/04/19 04:59:50;;;;;;;18.00;10.68;;;3.70;99.90;;;;;;5074047;28;20036;-49
2021/04/19 05:02:20;;;;;;;15.35;8.63;;;3.80;99.90;;;;;;5074159;28;20020;-48
2021/04/19 05:04:47;;;;;;;17.77;9.02;;;3.90;99.90;;;;;;5074104;28;20143;-48
2021/04/19 05:07:13;;;;;;;18.90;10.77;;;4.00;99.90;;;;;;5073152;28;20360;-48
2021/04/19 05:09:39;;;;;;;15.57;9.27;;;4.10;99.90;;;;;;5073981;28;20031;-47
2021/04/19 05:12:05;;;;;;;14.80;9.25;;;4.20;99.90;;;;;;5073866;28;20032;-49
2021/04/19 05:14:32;;;;;;;14.77;8.45;;;4.30;99.90;;;;;;5073888;28;20039;-49
2021/04/19 05:16:57;;;;;;;19.98;10.13;;;4.40;99.90;;;;;;5074069;28;20038;-46
2021/04/19 05:19:23;;;;;;;15.70;8.65;;;4.40;99.90;;;;;;5073634;28;20028;-47
2021/04/19 05:21:49;;;;;;;16.27;8.50;;;4.50;99.90;;;;;;5072932;28;20031;-50
2021/04/19 05:24:14;;;;;;;18.92;8.82;;;4.60;99.90;;;;;;5070705;28;20450;-47
2021/04/19 05:26:40;;;;;;;13.80;8.60;;;4.70;99.90;;;;;;5073537;28;20103;-47
2021/04/19 05:29:05;;;;;;;14.02;7.88;;;4.80;99.90;;;;;;5073410;28;20025;-49
2021/04/19 05:31:31;;;;;;;13.05;7.95;;;4.80;99.90;;;;;;5073672;28;20429;-47
2021/04/19 05:33:57;;;;;;;16.80;9.20;;;4.90;99.90;;;;;;5073496;28;20484;-49
2021/04/19 05:36:24;;;;;;;14.38;8.32;;;5.00;99.90;;;;;;5073073;28;20064;-47
2021/04/19 05:38:52;;;;;;;16.13;9.07;;;5.10;99.90;;;;;;5072063;28;20025;-48
2021/04/19 05:41:18;;;;;;;13.68;8.32;;;5.10;99.90;;;;;;5053991;28;20415;-48
2021/04/19 05:43:45;;;;;;;15.30;7.93;;;5.30;99.90;;;;;;5069991;28;20048;-46
2021/04/19 05:46:14;;;;;;;16.85;9.73;;;5.40;99.90;;;;;;5073312;28;20024;-48
2021/04/19 05:48:40;;;;;;;16.00;8.88;;;5.50;99.90;;;;;;5167296;23;20048;-48
2021/04/19 05:51:18;;;;;;;15.63;7.95;;;5.70;99.90;;;;;;5073120;28;20039;-48
2021/04/19 05:53:43;;;;;;;14.75;8.05;;;5.80;99.90;;;;;;5072372;28;20016;-47
2021/04/19 05:56:20;;;;;;;16.40;8.98;;;6.00;99.90;;;;;;5072516;28;20032;-48
2021/04/19 05:58:53;;;;;;;11.13;7.95;;;6.30;99.90;;;;;;5073091;28;20134;-46
2021/04/19 06:01:21;;;;;;;14.27;8.48;;;6.50;99.90;;;;;;5072895;28;20028;-48
2021/04/19 06:04:05;;;;;;;11.10;7.53;;;6.70;99.90;;;;;;5072807;28;20034;-46
2021/04/19 06:06:52;;;;;;;10.07;7.22;;;6.90;99.90;;;;;;5073022;28;20773;-48
2021/04/19 06:09:28;;;;;;;9.80;7.45;;;7.10;99.90;;;;;;5072706;28;20480;-47
2021/04/19 06:12:06;;;;;;;;;;;7.60;99.90;;;;;;5072912;28;20077;-48
2021/04/19 06:14:36;;;;;;;10.10;6.93;;;8.00;99.90;;;;;;5072580;28;20279;-59
2021/04/19 06:17:03;;;;;;;10.52;7.60;;;8.40;99.90;;;;;;5072917;28;20021;-59
2021/04/19 06:19:30;;;;;;;6.80;5.55;;;8.80;99.90;;;;;;5072511;28;20237;-58
2021/04/19 06:21:55;;;;;;;9.77;7.30;;;9.40;99.90;;;;;;5071830;28;20031;-59
2021/04/19 06:24:21;;;;;;;9.32;7.78;;;10.10;99.90;;;;;;5072513;28;20025;-59
2021/04/19 06:26:48;;;;;;;8.07;6.63;;;11.10;99.90;;;;;;5072556;28;20427;-58
2021/04/19 06:29:13;;;;;;;8.35;6.78;;;11.90;99.90;;;;;;5072424;28;20361;-56
2021/04/19 06:31:50;;;;;;;9.30;7.32;;;12.80;99.90;;;;;;5072681;28;20044;-59
2021/04/19 06:34:18;;;;;;;7.30;6.32;;;13.50;99.90;;;;;;5072409;28;20055;-59
2021/04/19 06:36:45;;;;;;;7.82;6.75;;;13.70;99.90;;;;;;5072221;28;20020;-58
2021/04/19 06:39:14;;;;;;;10.05;7.78;;;13.40;99.90;;;;;;5070260;28;20024;-51
2021/04/19 06:41:40;;;;;;;8.65;7.72;;;13.00;99.90;;;;;;5052335;28;20040;-48
2021/04/19 06:44:07;;;;;;;11.18;8.45;;;12.50;99.90;;;;;;5052330;28;20029;-48
2021/04/19 06:46:33;;;;;;;10.38;7.80;;;12.10;99.90;;;;;;5052312;28;20047;-48
2021/04/19 06:48:59;;;;;;;10.70;9.52;;;11.70;99.90;;;;;;5052251;28;20053;-48
2021/04/19 06:51:25;;;;;;;10.45;8.25;;;11.40;99.90;;;;;;5060814;28;20211;-49
2021/04/19 06:53:54;;;;;;;10.25;8.15;;;11.10;99.90;;;;;;5051325;28;20091;-47
2021/04/19 06:56:24;;;;;;;10.65;8.52;;;11.00;99.90;;;;;;5052051;28;20108;-52
2021/04/19 06:58:55;;;;;;;13.57;9.95;;;10.80;99.90;;;;;;5052281;28;20098;-50
2021/04/19 07:01:23;;;;;;;12.98;9.98;;;10.70;99.90;;;;;;5052073;28;20076;-48
2021/04/19 07:03:59;;;;;;;14.52;10.15;;;10.60;99.90;;;;;;5052410;28;20071;-47
2021/04/19 07:06:27;;;;;;;11.48;9.20;;;10.50;99.90;;;;;;5050659;28;20025;-51
2021/04/19 07:09:00;;;;;;;16.33;11.05;;;10.40;99.90;;;;;;5051446;28;20021;-47
2021/04/19 07:11:28;;;;;;;15.40;11.68;;;10.40;99.90;;;;;;5052002;28;20033;-50
2021/04/19 07:13:55;;;;;;;16.83;11.95;;;10.30;99.90;;;;;;5051838;28;20025;-49
2021/04/19 07:16:21;;;;;;;16.98;11.50;;;10.40;99.90;;;;;;5051926;28;20040;-48
2021/04/19 07:18:46;;;;;;;19.02;14.25;;;10.40;99.90;;;;;;5052122;28;20033;-48
2021/04/19 07:21:12;;;;;;;22.27;14.82;;;10.30;99.90;;;;;;5051894;28;20420;-49
2021/04/19 07:23:39;;;;;;;18.63;13.63;;;10.30;99.90;;;;;;5051050;28;20049;-47
2021/04/19 07:26:06;;;;;;;23.38;16.05;;;10.50;99.90;;;;;;5052069;28;20514;-49
2021/04/19 07:28:37;;;;;;;21.88;15.10;;;10.40;99.90;;;;;;5052137;28;20029;-50
2021/04/19 07:31:04;;;;;;;20.35;13.73;;;10.30;99.90;;;;;;5051936;28;20057;-48
2021/04/19 07:33:33;;;;;;;22.02;14.35;;;10.10;99.90;;;;;;5051847;28;20055;-50
2021/04/19 07:36:28;;;;;;;19.05;12.57;;;9.90;99.90;;;;;;5051955;28;20043;-47
2021/04/19 07:38:57;;;;;;;18.48;12.32;;;9.90;99.90;;;;;;5051215;28;20107;-50
2021/04/19 07:41:46;;;;;;;17.70;13.63;;;9.90;99.90;;;;;;5051886;28;20025;-47
2021/04/19 07:44:31;;;;;;;22.88;15.70;;;9.80;99.90;;;;;;5051819;28;20028;-51
2021/04/19 07:47:24;;;;;;;18.27;12.45;;;9.70;99.90;;;;;;5051748;28;20013;-48
2021/04/19 07:50:06;;;;;;;18.55;13.02;;;9.70;99.90;;;;;;5051748;28;20039;-49
2021/04/19 07:52:36;;;;;;;16.73;12.05;;;9.80;99.90;;;;;;5069219;28;20035;-49
2021/04/19 07:55:16;;;;;;;20.02;12.45;;;9.90;99.90;;;;;;5071780;28;20033;-52
2021/04/19 07:57:46;;;;;;;17.35;12.25;;;9.90;99.90;;;;;;5071834;28;20048;-50
2021/04/19 08:00:22;;;;;;;18.45;12.30;;;10.10;99.90;;;;;;5072356;28;20104;-51
2021/04/19 08:02:55;;;;;;;;;;;10.30;99.90;;;;;;5075742;28;20032;-49
2021/04/19 08:05:32;;;;;;;15.52;10.35;;;10.40;99.90;;;;;;5075264;28;19904;-48
2021/04/19 08:07:58;;;;;;;15.70;11.10;;;10.50;99.90;;;;;;5074518;28;20020;-52
2021/04/19 08:10:24;;;;;;;17.63;10.75;;;10.60;99.90;;;;;;5075135;28;20042;-53
2021/04/19 08:13:00;;;;;;;15.55;10.73;;;10.80;99.90;;;;;;5075254;28;20078;-50
2021/04/19 08:15:26;;;;;;;14.68;10.07;;;11.10;99.90;;;;;;5074998;28;20053;-55
2021/04/19 08:18:00;;;;;;;13.23;9.38;;;11.50;99.90;;;;;;5075121;28;20379;-49
2021/04/19 08:20:26;;;;;;;15.50;10.60;;;12.00;99.90;;;;;;5074775;28;20023;-48
2021/04/19 08:22:52;;;;;;;16.50;11.40;;;12.80;99.90;;;;;;5074117;28;20384;-50
2021/04/19 08:25:23;;;;;;;17.45;11.98;;;13.70;99.90;;;;;;5074915;28;20028;-49
2021/04/19 08:28:02;;;;;;;19.38;13.50;;;15.00;99.90;;;;;;5074833;28;20420;-51
2021/04/19 08:30:29;;;;;;;15.65;12.07;;;16.50;99.90;;;;;;5074640;28;20107;-53
2021/04/19 08:32:57;;;;;;;16.10;12.27;;;17.70;99.90;;;;;;5074880;28;20426;-54
2021/04/19 08:35:23;;;;;;;13.00;10.75;;;18.00;98.80;;;;;;5074744;28;20115;-53
2021/04/19 08:37:49;;;;;;;15.23;12.45;;;17.60;98.60;;;;;;5073723;28;20417;-50
2021/04/19 08:40:16;;;;;;;18.35;12.15;;;17.30;99.30;;;;;;5468315;23;20052;-51
2021/04/19 08:42:42;;;;;;;13.82;10.68;;;17.10;98.50;;;;;;5054494;28;20365;-51
2021/04/19 08:45:09;;;;;;;13.45;10.88;;;17.10;96.90;;;;;;5054338;28;20035;-52
2021/04/19 08:47:35;;;;;;;13.65;11.48;;;17.20;96.70;;;;;;5054744;28;20381;-54
2021/04/19 08:50:07;;;;;;;17.48;13.30;;;17.40;95.10;;;;;;5054427;28;20025;-48
2021/04/19 08:52:35;;;;;;;17.38;13.32;;;17.40;94.40;;;;;;5053402;28;20021;-51
2021/04/19 08:55:01;;;;;;;19.95;15.98;;;17.30;94.30;;;;;;5054226;28;20017;-54
2021/04/19 08:57:27;;;;;;;19.13;14.80;;;17.10;92.00;;;;;;5054488;28;20100;-51
2021/04/19 08:59:53;;;;;;;19.95;15.27;;;17.00;92.10;;;;;;5054264;28;20108;-51
2021/04/19 09:02:21;;;;;;;20.65;15.45;;;17.00;91.50;;;;;;5054050;28;20040;-49
2021/04/19 09:05:20;;;;;;;17.35;13.73;;;17.10;90.70;;;;;;5054151;28;20021;-50
2021/04/19 09:07:48;;;;;;;22.38;15.95;;;17.30;89.50;;;;;;5053141;28;20025;-48
2021/04/19 09:10:17;;;;;;;16.60;12.93;;;17.80;90.20;;;;;;5054028;28;20021;-51
2021/04/19 09:12:44;;;;;;;15.55;13.40;;;17.90;88.50;;;;;;5052819;28;20024;-51
2021/04/19 09:15:33;;;;;;;14.23;12.32;;;18.00;86.90;;;;;;5053963;28;20033;-51
2021/04/19 09:18:08;;;;;;;16.08;13.18;;;18.10;88.80;;;;;;5053758;28;20051;-52
2021/04/19 09:20:47;;;;;;;12.85;10.65;;;18.50;85.40;;;;;;5053645;28;20456;-50
2021/04/19 09:23:17;;;;;;;14.88;11.20;;;19.10;77.90;;;;;;5052897;28;20423;-51
2021/04/19 09:25:43;;;;;;;14.45;11.35;;;19.90;81.20;;;;;;5053580;28;20044;-53
2021/04/19 09:28:08;;;;;;;12.80;11.18;;;20.60;80.30;;;;;;5053762;28;20456;-49
2021/04/19 09:30:37;;;;;;;12.65;9.77;;;20.60;78.40;;;;;;5053504;28;20033;-52
2021/04/19 09:33:02;;;;;;;12.27;10.35;;;21.00;76.20;;;;;;5053805;28;20170;-50
2021/04/19 09:35:40;;;;;;;14.10;10.80;;;21.00;74.40;;;;;;5053481;28;20039;-52
2021/04/19 09:38:14;;;;;;;9.52;8.27;;;20.90;70.70;;;;;;5052772;28;20067;-51
2021/04/19 09:40:56;;;;;;;9.32;7.68;;;20.90;72.70;;;;;;5038891;28;20135;-52
2021/04/19 09:43:34;;;;;;;8.23;7.18;;;20.90;72.90;;;;;;5033694;28;20017;-51
2021/04/19 09:46:04;;;;;;;9.23;7.63;;;20.50;67.80;;;;;;5033419;28;20013;-53
2021/04/19 09:48:38;;;;;;;10.60;9.10;;;20.10;70.90;;;;;;5033339;28;20025;-52
2021/04/19 09:51:19;;;;;;;7.30;6.53;;;19.50;71.30;;;;;;5039259;28;20493;-54
2021/04/19 09:53:55;;;;;;;7.30;6.32;;;19.10;71.10;;;;;;5052361;28;20564;-53
2021/04/19 09:56:26;;;;;;;8.65;6.13;;;18.80;73.20;;;;;;5053164;28;20036;-52
2021/04/19 09:58:54;;;;;;;9.48;6.18;;;18.50;73.70;;;;;;5053146;28;20087;-53
2021/04/19 10:01:21;;;;;;;7.65;6.25;;;18.30;73.80;;;;;;5053058;28;20473;-51
2021/04/19 10:03:48;;;;;;;7.88;6.22;;;18.20;74.70;;;;;;5052801;28;20037;-54
2021/04/19 10:06:15;;;;;;;6.65;5.15;;;18.10;74.60;;;;;;5052994;28;20025;-52
2021/04/19 10:08:43;;;;;;;7.80;7.03;;;18.00;74.90;;;;;;5052030;28;20500;-54
2021/04/19 10:11:12;;;;;;;6.70;6.00;;;17.80;74.00;;;;;;5052950;28;20047;-48
2021/04/19 10:13:38;;;;;;;7.50;6.20;;;17.80;74.70;;;;;;5052938;28;20049;-51
2021/04/19 10:16:09;;;;;;;9.90;6.90;;;17.80;74.60;;;;;;5052729;28;20060;-52
2021/04/19 10:18:37;;;;;;;6.78;6.07;;;17.80;74.30;;;;;;5052760;28;20067;-54
2021/04/19 10:21:05;;;;;;;8.52;6.82;;;17.90;74.80;;;;;;5052719;28;20029;-52
2021/04/19 10:23:36;;;;;;;6.50;5.80;;;18.10;74.60;;;;;;5051654;28;20404;-51
2021/04/19 10:26:02;;;;;;;6.45;5.78;;;18.30;74.50;;;;;;5052538;28;20476;-54
2021/04/19 10:28:28;;;;;;;7.55;6.03;;;18.50;74.10;;;;;;5052906;28;20411;-52
2021/04/19 10:31:18;;;;;;;7.45;6.63;;;18.50;73.90;;;;;;5052561;28;20816;-53
2021/04/19 10:33:46;;;;;;;7.68;6.18;;;18.60;73.10;;;;;;5052499;28;20029;-50
2021/04/19 10:36:12;;;;;;;7.38;6.63;;;18.50;73.10;;;;;;5052678;28;20025;-49
2021/04/19 10:38:40;;;;;;;6.68;5.97;;;18.30;72.70;;;;;;5051682;28;20147;-52
2021/04/19 10:41:06;;;;;;;8.48;6.10;;;18.10;73.30;;;;;;5034620;28;20427;-51
2021/04/19 10:43:32;;;;;;;9.27;5.47;;;18.10;73.90;;;;;;5032732;28;20021;-54
2021/04/19 10:45:59;;;;;;;7.90;6.28;;;18.20;73.80;;;;;;5032391;28;20025;-54
2021/04/19 10:48:28;;;;;;;6.85;5.70;;;18.20;73.90;;;;;;5032577;28;20440;-51
2021/04/19 10:50:57;;;;;;;7.45;5.32;;;18.30;73.00;;;;;;5037061;28;20036;-51
2021/04/19 10:53:32;;;;;;;7.35;6.07;;;18.50;73.60;;;;;;5050273;28;20055;-54
2021/04/19 10:56:00;;;;;;;7.57;6.10;;;18.70;71.90;;;;;;5050904;28;20032;-49
2021/04/19 10:58:30;;;;;;;7.20;5.78;;;18.80;72.70;;;;;;5052462;28;20526;-51
2021/04/19 11:00:55;;;;;;;6.50;5.80;;;18.90;72.40;;;;;;5052103;28;20041;-52
2021/04/19 11:03:21;;;;;;;6.95;6.25;;;19.00;72.60;;;;;;5052453;28;20040;-50
2021/04/19 11:05:47;;;;;;;9.35;7.40;;;19.00;71.70;;;;;;5052018;28;20036;-48
2021/04/19 11:08:12;;;;;;;9.82;6.32;;;18.70;71.80;;;;;;5051351;28;20070;-52
2021/04/19 11:10:38;;;;;;;8.15;6.15;;;18.40;72.60;;;;;;5052184;28;20043;-54
2021/04/19 11:13:06;;;;;;;7.50;5.40;;;18.10;72.80;;;;;;5052119;28;20029;-51
2021/04/19 11:15:38;;;;;;;10.68;7.93;;;18.00;73.50;;;;;;5052240;28;20052;-51
2021/04/19 11:18:24;;;;;;;10.05;6.90;;;17.70;71.90;;;;;;5052103;28;20035;-51
2021/04/19 11:20:52;;;;;;;9.07;6.47;;;17.50;72.30;;;;;;5051657;28;20060;-53
2021/04/19 11:23:25;;;;;;;11.80;7.10;;;17.30;74.00;;;;;;5051429;28;20443;-50
2021/04/19 11:25:51;;;;;;;7.18;5.70;;;17.30;75.00;;;;;;5051890;28;20376;-51
2021/04/19 11:28:23;;;;;;;10.07;6.60;;;17.30;74.30;;;;;;5052114;28;20127;-52
2021/04/19 11:30:52;;;;;;;6.82;5.20;;;17.40;74.30;;;;;;5051978;28;20033;-55
2021/04/19 11:33:24;;;;;;;7.35;5.82;;;17.40;74.30;;;;;;5051822;28;20025;-53
2021/04/19 11:35:58;;;;;;;10.13;6.95;;;17.60;73.80;;;;;;5053514;28;20025;-49
2021/04/19 11:38:25;;;;;;;10.73;6.25;;;17.80;74.00;;;;;;5054913;28;20119;-50
2021/04/19 11:40:57;;;;;;;14.07;7.13;;;18.00;73.60;;;;;;5039797;28;20091;-54
2021/04/19 11:43:31;;;;;;;10.13;6.40;;;18.10;73.50;;;;;;5035875;28;20081;-50
2021/04/19 11:46:09;;;;;;;12.15;7.25;;;18.30;73.30;;;;;;5035397;28;20545;-50
2021/04/19 11:48:39;;;;;;;10.75;8.02;;;18.30;72.70;;;;;;5035868;28;20516;-53
2021/04/19 11:51:06;;;;;;;10.93;6.88;;;18.30;72.90;;;;;;5041460;28;20052;-52
2021/04/19 11:53:34;;;;;;;10.98;7.35;;;18.30;72.70;;;;;;5054746;28;20107;-52
2021/04/19 11:56:01;;;;;;;17.20;10.02;;;18.30;72.80;;;;;;5055354;28;20473;-53
2021/04/19 11:58:27;;;;;;;12.23;8.02;;;18.20;71.70;;;;;;5055423;28;20036;-51
2021/04/19 12:00:55;;;;;;;11.40;7.88;;;18.10;72.10;;;;;;5055344;28;20033;-54
2021/04/19 12:03:21;;;;;;;18.17;8.90;;;18.10;72.20;;;;;;5055389;28;20036;-52
2021/04/19 12:05:48;;;;;;;11.98;8.30;;;18.00;72.50;;;;;;5055121;28;20045;-51
2021/04/19 12:08:14;;;;;;;10.88;7.32;;;18.00;72.80;;;;;;5054401;28;20155;-51
2021/04/19 12:10:40;;;;;;;12.13;8.80;;;18.10;73.10;;;;;;5055354;28;20033;-54
2021/04/19 12:13:06;;;;;;;11.10;8.35;;;18.10;73.20;;;;;;5053621;28;20025;-48
2021/04/19 12:15:32;;;;;;;15.00;8.27;;;18.20;73.10;;;;;;5055301;28;20404;-52
2021/04/19 12:17:58;;;;;;;15.57;8.82;;;18.20;73.20;;;;;;5054984;28;20207;-52
2021/04/19 12:20:23;;;;;;;14.43;8.85;;;18.20;73.30;;;;;;5051439;28;20029;-54
2021/04/19 12:22:49;;;;;;;12.77;7.35;;;18.10;73.10;;;;;;5053829;28;20376;-50
2021/04/19 12:25:15;;;;;;;18.45;10.80;;;18.10;73.20;;;;;;5053683;28;20021;-51
2021/04/19 12:27:41;;;;;;;14.10;9.38;;;18.10;73.10;;;;;;5054823;28;20032;-53
2021/04/19 12:30:07;;;;;;;17.77;9.73;;;18.00;73.10;;;;;;5054850;28;20542;-51
2021/04/19 12:32:33;;;;;;;14.05;9.30;;;18.10;73.10;;;;;;5054730;28;20057;-50
2021/04/19 12:34:59;;;;;;;12.90;8.65;;;18.10;73.10;;;;;;5054713;28;20115;-50
2021/04/19 12:37:25;;;;;;;11.90;8.82;;;18.10;73.20;;;;;;5053720;28;20025;-50
2021/04/19 12:39:50;;;;;;;16.70;9.50;;;18.20;73.20;;;;;;5047237;28;20040;-56
2021/04/19 12:42:16;;;;;;;16.65;9.15;;;18.10;73.50;;;;;;5034506;28;20025;-52
2021/04/19 12:44:41;;;;;;;11.82;9.00;;;18.10;73.50;;;;;;5034813;28;20100;-55
2021/04/19 12:47:07;;;;;;;10.95;7.60;;;18.20;73.70;;;;;;5034232;28;20380;-52
2021/04/19 12:49:32;;;;;;;12.52;8.55;;;18.10;73.70;;;;;;5034688;28;20025;-49
2021/04/19 12:51:59;;;;;;;16.15;8.68;;;18.10;73.80;;;;;;5045597;28;20448;-54
2021/04/19 12:54:24;;;;;;;13.43;9.25;;;18.10;74.00;;;;;;5054564;28;20032;-51